Time;durP1;ratioP1;P1;durP2;ratioP2;P2;SDS_P1;SDS_P2;PMS_P1;PMS_P2;Temp;Humidity;BMP_temperature;BMP_pressure;BME280_temperature;BME280_humidity;BME280_pressure;Samples;Min_cycle;Max_cycle;Signal;HPM_P1;HPM_P2
2022/01/03 00:01:30;;;;;;;18.95;2.65;;;10.30;99.90;;;;;;5116431;28;20175;-58
2022/01/03 00:03:56;;;;;;;8.05;2.67;;;10.20;99.90;;;;;;5116345;28;20161;-58
2022/01/03 00:06:21;;;;;;;13.40;2.85;;;10.20;99.90;;;;;;5115907;28;20219;-59
2022/01/03 00:08:48;;;;;;;11.70;2.05;;;10.20;99.90;;;;;;5115974;28;20192;-60
2022/01/03 00:11:16;;;;;;;10.50;2.65;;;10.20;99.90;;;;;;5115811;28;20614;-59
2022/01/03 00:13:44;;;;;;;11.20;2.65;;;10.20;99.90;;;;;;5116128;28;20192;-58
2022/01/03 00:16:10;;;;;;;15.45;3.20;;;10.30;99.90;;;;;;5115725;28;20251;-55
2022/01/03 00:18:37;;;;;;;10.07;2.95;;;10.20;99.90;;;;;;5115743;28;20200;-51
2022/01/03 00:21:09;;;;;;;10.75;2.67;;;10.20;99.90;;;;;;5115632;28;20161;-49
2022/01/03 00:23:38;;;;;;;9.60;2.38;;;10.20;99.90;;;;;;5115564;28;20196;-51
2022/01/03 00:26:08;;;;;;;12.32;2.72;;;10.30;99.90;;;;;;5115579;28;20172;-51
2022/01/03 00:28:38;;;;;;;19.55;3.25;;;10.30;99.90;;;;;;5115619;28;20168;-49
2022/01/03 00:31:05;;;;;;;10.15;2.40;;;10.30;99.90;;;;;;5115522;28;20165;-50
2022/01/03 00:33:32;;;;;;;12.98;3.47;;;10.30;99.90;;;;;;5115436;28;20247;-53
2022/01/03 00:36:00;;;;;;;12.85;2.72;;;10.30;99.90;;;;;;5115826;28;20679;-50
2022/01/03 00:38:27;;;;;;;9.85;2.67;;;10.30;99.90;;;;;;5115648;28;20172;-55
2022/01/03 00:40:54;;;;;;;9.65;2.03;;;10.20;99.90;;;;;;5115277;28;20161;-50
2022/01/03 00:43:19;;;;;;;9.63;2.40;;;10.20;99.90;;;;;;5115249;28;20161;-50
2022/01/03 00:45:45;;;;;;;12.70;2.65;;;10.20;99.90;;;;;;5115248;28;20180;-49
2022/01/03 00:48:12;;;;;;;13.27;3.05;;;10.20;99.90;;;;;;5115135;28;20699;-52
2022/01/03 00:50:38;;;;;;;6.65;2.55;;;10.20;99.90;;;;;;5115110;28;20160;-52
2022/01/03 00:53:05;;;;;;;8.98;2.00;;;10.20;99.90;;;;;;5114697;28;20564;-48
2022/01/03 00:55:30;;;;;;;11.25;2.75;;;10.20;99.90;;;;;;5114850;28;20188;-55
2022/01/03 00:58:06;;;;;;;12.80;2.38;;;10.30;99.90;;;;;;5097005;28;20204;-48
2022/01/03 01:00:36;;;;;;;8.65;2.67;;;10.20;99.90;;;;;;5115027;28;20164;-49
2022/01/03 01:03:12;;;;;;;11.68;2.28;;;10.20;99.90;;;;;;5114968;28;20165;-50
2022/01/03 01:05:49;;;;;;;9.75;2.20;;;10.20;99.90;;;;;;5115268;28;20172;-48
2022/01/03 01:08:20;;;;;;;12.93;3.20;;;10.20;99.90;;;;;;5114499;28;20671;-50
2022/01/03 01:10:46;;;;;;;12.25;2.53;;;10.10;99.90;;;;;;5114831;28;20216;-50
2022/01/03 01:13:14;;;;;;;12.02;2.58;;;10.10;99.90;;;;;;5114690;28;20172;-49
2022/01/03 01:15:41;;;;;;;11.98;2.72;;;10.10;99.90;;;;;;5114717;28;20172;-51
2022/01/03 01:18:07;;;;;;;12.55;3.20;;;10.00;99.90;;;;;;5096459;28;20631;-55
2022/01/03 01:20:35;;;;;;;11.07;2.88;;;10.00;99.90;;;;;;5114533;28;20226;-51
2022/01/03 01:23:02;;;;;;;15.20;2.50;;;10.10;99.90;;;;;;5114518;28;20201;-55
2022/01/03 01:28:03;;;;;;;7.45;2.03;;;10.20;99.90;;;;;;5114591;28;20640;-59
2022/01/03 01:30:29;;;;;;;18.35;3.13;;;10.20;99.90;;;;;;5096402;28;20505;-49
2022/01/03 01:33:25;;;;;;;5.88;1.80;;;10.20;99.90;;;;;;5114587;28;20191;-56
2022/01/03 01:35:56;;;;;;;8.80;2.67;;;10.30;99.90;;;;;;5093649;28;20200;-60
2022/01/03 01:38:27;;;;;;;9.38;2.25;;;10.30;99.90;;;;;;5114231;28;20161;-58
2022/01/03 01:40:56;;;;;;;10.70;2.83;;;10.30;99.90;;;;;;5114181;28;20165;-61
2022/01/03 01:43:37;;;;;;;8.35;1.80;;;10.30;99.90;;;;;;5114115;28;20161;-58
2022/01/03 01:46:10;;;;;;;11.70;3.22;;;10.30;99.90;;;;;;5114211;28;20570;-60
2022/01/03 01:48:37;;;;;;;7.65;1.77;;;10.30;99.90;;;;;;5114017;28;20186;-60
2022/01/03 01:51:05;;;;;;;14.85;3.17;;;10.30;99.90;;;;;;5114241;28;20161;-59
2022/01/03 01:53:35;;;;;;;19.65;2.75;;;10.30;99.90;;;;;;5114200;28;20176;-59
2022/01/03 01:56:04;;;;;;;11.10;2.35;;;10.30;99.90;;;;;;5113843;28;20640;-56
2022/01/03 01:58:39;;;;;;;9.30;2.38;;;10.40;99.90;;;;;;5114118;28;20184;-58
2022/01/03 02:01:07;;;;;;;17.95;2.20;;;10.40;99.90;;;;;;5113725;28;20172;-62
2022/01/03 02:04:00;;;;;;;9.15;2.75;;;10.30;99.90;;;;;;5095543;28;20175;-59
2022/01/03 02:06:43;;;;;;;13.48;2.10;;;10.30;99.90;;;;;;5099231;28;20216;-61
2022/01/03 02:09:17;;;;;;;10.95;2.00;;;10.30;99.90;;;;;;5113625;28;20181;-61
2022/01/03 02:11:51;;;;;;;14.70;3.00;;;10.30;99.90;;;;;;5113543;28;20235;-61
2022/01/03 02:14:19;;;;;;;10.18;2.70;;;10.30;99.90;;;;;;5113684;28;20172;-62
2022/01/03 02:16:45;;;;;;;13.25;2.70;;;10.20;99.90;;;;;;5113729;28;20168;-61
2022/01/03 02:19:11;;;;;;;9.40;2.65;;;10.10;99.90;;;;;;5095223;28;20169;-62
2022/01/03 02:21:37;;;;;;;14.07;2.80;;;10.10;99.90;;;;;;5113369;28;20164;-62
2022/01/03 02:24:03;;;;;;;12.75;1.73;;;10.10;99.90;;;;;;5113306;28;20173;-58
2022/01/03 02:26:29;;;;;;;9.52;2.05;;;10.10;99.90;;;;;;5113111;28;20195;-56
2022/01/03 02:28:55;;;;;;;14.02;2.70;;;10.20;99.90;;;;;;5113796;28;20172;-60
2022/01/03 02:31:22;;;;;;;8.60;2.20;;;10.20;99.90;;;;;;5113436;28;20172;-61
2022/01/03 02:33:48;;;;;;;6.43;1.98;;;10.10;99.90;;;;;;5113342;28;20273;-58
2022/01/03 02:36:15;;;;;;;14.65;3.20;;;10.10;99.90;;;;;;5113159;28;20667;-61
2022/01/03 02:38:40;;;;;;;12.13;3.20;;;10.10;99.90;;;;;;5113105;28;20207;-61
2022/01/03 02:41:06;;;;;;;14.05;2.33;;;10.10;99.90;;;;;;5113007;28;20188;-61
2022/01/03 02:43:31;;;;;;;18.15;2.55;;;10.10;99.90;;;;;;5113046;28;20175;-61
2022/01/03 02:45:57;;;;;;;12.45;2.50;;;10.10;99.90;;;;;;5113489;28;20192;-58
2022/01/03 02:48:23;;;;;;;11.13;2.63;;;10.10;99.90;;;;;;5112792;28;20283;-61
2022/01/03 02:50:49;;;;;;;15.00;2.35;;;10.10;99.90;;;;;;5113246;28;20852;-59
2022/01/03 02:53:15;;;;;;;14.85;2.20;;;10.10;99.90;;;;;;5112850;28;20647;-62
2022/01/03 02:55:41;;;;;;;22.48;2.92;;;10.10;99.90;;;;;;5112838;28;20161;-56
2022/01/03 02:58:07;;;;;;;9.32;2.28;;;10.10;99.90;;;;;;5112755;28;20176;-61
2022/01/03 03:00:48;;;;;;;11.60;2.33;;;10.10;99.90;;;;;;5113029;28;20172;-61
2022/01/03 03:03:14;;;;;;;17.98;3.13;;;10.10;99.90;;;;;;5113470;28;20252;-61
2022/01/03 03:05:40;;;;;;;14.30;2.78;;;10.20;99.90;;;;;;5094543;28;20214;-60
2022/01/03 03:08:07;;;;;;;7.40;2.13;;;10.10;99.90;;;;;;5112575;28;20196;-56
2022/01/03 03:10:32;;;;;;;8.82;2.28;;;10.10;99.90;;;;;;5112539;28;20165;-58
2022/01/03 03:12:58;;;;;;;13.05;2.20;;;10.10;99.90;;;;;;5112895;28;20183;-59
2022/01/03 03:15:23;;;;;;;9.85;3.03;;;10.00;99.90;;;;;;5112518;28;20165;-61
2022/01/03 03:17:49;;;;;;;6.45;1.88;;;10.00;99.90;;;;;;5112364;28;20230;-61
2022/01/03 03:20:18;;;;;;;9.07;2.33;;;10.00;99.90;;;;;;5112772;28;20173;-61
2022/01/03 03:22:44;;;;;;;11.85;2.95;;;10.00;99.90;;;;;;5112455;28;20214;-58
2022/01/03 03:25:12;;;;;;;7.43;1.83;;;10.00;99.90;;;;;;5112736;28;20558;-60
2022/01/03 03:27:44;;;;;;;14.10;1.95;;;10.00;99.90;;;;;;5112409;28;20204;-60
2022/01/03 03:30:22;;;;;;;10.50;2.60;;;10.00;99.90;;;;;;5112599;28;20179;-56
2022/01/03 03:32:51;;;;;;;10.88;2.55;;;9.90;99.90;;;;;;5112375;28;20165;-60
2022/01/03 03:35:17;;;;;;;10.00;2.10;;;9.90;99.90;;;;;;5112525;28;20167;-60
2022/01/03 03:37:43;;;;;;;11.85;4.10;;;9.90;99.90;;;;;;5112640;28;20173;-55
2022/01/03 03:40:09;;;;;;;4.57;1.90;;;9.90;99.90;;;;;;5112269;28;20160;-51
2022/01/03 03:42:35;;;;;;;13.25;2.53;;;9.90;99.90;;;;;;5112355;28;20527;-50
2022/01/03 03:45:02;;;;;;;7.50;2.08;;;9.90;99.90;;;;;;5112267;28;20161;-50
2022/01/03 03:47:28;;;;;;;9.23;2.63;;;9.90;99.90;;;;;;5112552;28;20204;-50
2022/01/03 03:49:54;;;;;;;6.47;2.35;;;9.90;99.90;;;;;;5112506;28;20176;-50
2022/01/03 03:52:19;;;;;;;12.43;2.63;;;9.90;99.90;;;;;;5112151;28;20255;-50
2022/01/03 03:54:45;;;;;;;16.73;3.10;;;9.90;99.90;;;;;;5112233;28;20196;-49
2022/01/03 03:57:12;;;;;;;13.57;2.78;;;9.90;99.90;;;;;;5112130;28;20203;-47
2022/01/03 03:59:38;;;;;;;5.88;1.77;;;9.80;99.90;;;;;;5112109;28;20644;-48
2022/01/03 04:02:04;;;;;;;7.43;2.40;;;9.90;99.90;;;;;;5112196;28;20298;-50
2022/01/03 04:04:29;;;;;;;7.63;2.53;;;9.90;99.90;;;;;;5111933;28;20670;-48
2022/01/03 04:06:55;;;;;;;14.05;3.50;;;9.90;99.90;;;;;;5112239;28;20208;-48
2022/01/03 04:09:21;;;;;;;11.27;2.83;;;9.90;99.90;;;;;;5112045;28;20157;-49
2022/01/03 04:11:47;;;;;;;10.55;1.90;;;9.90;99.90;;;;;;5111810;28;20220;-49
2022/01/03 04:14:12;;;;;;;8.73;2.17;;;9.80;99.90;;;;;;5112026;28;20165;-49
2022/01/03 04:16:38;;;;;;;10.20;1.80;;;9.90;99.90;;;;;;5112176;28;20650;-49
2022/01/03 04:19:04;;;;;;;5.93;1.80;;;9.90;99.90;;;;;;5112226;28;20177;-48
2022/01/03 04:21:31;;;;;;;9.55;2.63;;;9.90;99.90;;;;;;5112004;28;20263;-49
2022/01/03 04:23:57;;;;;;;5.90;1.83;;;9.90;99.90;;;;;;5112248;28;20173;-54
2022/01/03 04:26:23;;;;;;;9.38;2.15;;;9.90;99.90;;;;;;5111806;28;20161;-50
2022/01/03 04:28:48;;;;;;;11.00;2.28;;;9.90;99.90;;;;;;5112621;28;20165;-50
2022/01/03 04:31:14;;;;;;;10.60;2.28;;;9.90;99.90;;;;;;5115476;28;20173;-54
2022/01/03 04:33:40;;;;;;;12.25;2.47;;;9.90;99.90;;;;;;5115488;28;20168;-47
2022/01/03 04:36:07;;;;;;;9.73;2.10;;;9.80;99.90;;;;;;5115674;28;20169;-49
2022/01/03 04:38:33;;;;;;;6.25;2.03;;;9.80;99.90;;;;;;5115651;28;20527;-49
2022/01/03 04:40:59;;;;;;;10.10;2.28;;;9.80;99.90;;;;;;5115754;28;20169;-48
2022/01/03 04:43:25;;;;;;;8.48;1.55;;;9.80;99.90;;;;;;5115551;28;20180;-50
2022/01/03 04:45:51;;;;;;;8.05;2.17;;;9.80;99.90;;;;;;5115231;28;20164;-50
2022/01/03 04:48:17;;;;;;;14.45;2.15;;;9.80;99.90;;;;;;5115143;28;20224;-51
2022/01/03 04:50:43;;;;;;;13.02;2.60;;;9.70;99.90;;;;;;5115502;28;20519;-48
2022/01/03 04:53:09;;;;;;;8.07;2.03;;;9.70;99.90;;;;;;5115353;28;20165;-54
2022/01/03 04:55:34;;;;;;;13.70;2.95;;;9.70;99.90;;;;;;5115142;28;20670;-51
2022/01/03 04:58:00;;;;;;;12.27;3.03;;;9.80;99.90;;;;;;5115220;28;20173;-53
2022/01/03 05:00:25;;;;;;;12.10;3.08;;;9.80;99.90;;;;;;5115305;28;20632;-51
2022/01/03 05:02:51;;;;;;;7.93;2.60;;;9.70;99.90;;;;;;5114905;28;20165;-54
2022/01/03 05:05:16;;;;;;;12.65;2.63;;;9.60;99.90;;;;;;5114861;28;20505;-50
2022/01/03 05:07:42;;;;;;;15.13;2.47;;;9.70;99.90;;;;;;5115034;28;20233;-51
2022/01/03 05:10:08;;;;;;;10.63;2.78;;;9.60;99.90;;;;;;5114741;28;20524;-50
2022/01/03 05:12:33;;;;;;;9.77;2.80;;;9.70;99.90;;;;;;5114610;28;20295;-48
2022/01/03 05:14:59;;;;;;;15.45;2.78;;;9.70;99.90;;;;;;5114657;28;20196;-55
2022/01/03 05:17:25;;;;;;;15.48;2.67;;;9.70;99.90;;;;;;5114968;28;20165;-60
2022/01/03 05:19:50;;;;;;;13.90;2.55;;;9.70;99.90;;;;;;5114712;28;20169;-58
2022/01/03 05:22:16;;;;;;;10.57;2.42;;;9.70;99.90;;;;;;5114889;28;20172;-57
2022/01/03 05:24:41;;;;;;;10.80;3.42;;;9.70;99.90;;;;;;5114552;28;20160;-57
2022/01/03 05:27:07;;;;;;;9.80;1.80;;;9.80;99.90;;;;;;5114363;28;20664;-53
2022/01/03 05:29:34;;;;;;;12.27;2.67;;;9.80;99.90;;;;;;5114198;28;20581;-54
2022/01/03 05:32:00;;;;;;;9.93;1.92;;;9.90;99.90;;;;;;5114137;28;20566;-55
2022/01/03 05:34:26;;;;;;;10.23;2.60;;;9.80;99.90;;;;;;5114508;28;20628;-61
2022/01/03 05:36:51;;;;;;;13.60;3.28;;;9.80;99.90;;;;;;5114228;28;20218;-54
2022/01/03 05:39:17;;;;;;;14.25;2.47;;;9.80;99.90;;;;;;5113891;28;20251;-59
2022/01/03 05:41:42;;;;;;;13.73;2.45;;;9.80;99.90;;;;;;5114224;28;20165;-60
2022/01/03 05:44:09;;;;;;;10.90;2.30;;;9.80;99.90;;;;;;5114081;28;20222;-55
2022/01/03 05:46:35;;;;;;;13.65;2.30;;;9.80;99.90;;;;;;5114307;28;20555;-54
2022/01/03 05:49:00;;;;;;;19.30;3.67;;;9.80;99.90;;;;;;5113420;28;20169;-57
2022/01/03 05:51:27;;;;;;;8.18;2.60;;;9.80;99.90;;;;;;5114289;28;20173;-57
2022/01/03 05:53:53;;;;;;;16.35;3.00;;;9.80;99.90;;;;;;5113864;28;20510;-57
2022/01/03 05:56:19;;;;;;;13.88;2.63;;;9.80;99.90;;;;;;5113903;28;20164;-58
2022/01/03 05:58:44;;;;;;;10.95;2.72;;;9.80;99.90;;;;;;5113840;28;20247;-55
2022/01/03 06:01:10;;;;;;;8.15;2.22;;;9.80;99.90;;;;;;5113770;28;20766;-58
2022/01/03 06:03:38;;;;;;;10.07;2.03;;;9.80;99.90;;;;;;5113984;28;20663;-51
2022/01/03 06:06:18;;;;;;;9.07;2.53;;;9.80;99.90;;;;;;5113548;28;20598;-54
2022/01/03 06:08:44;;;;;;;13.77;2.88;;;9.80;99.90;;;;;;5113926;28;20195;-55
2022/01/03 06:11:09;;;;;;;9.52;2.60;;;9.80;99.90;;;;;;5113427;28;20204;-54
2022/01/03 06:13:35;;;;;;;9.98;2.53;;;9.80;99.90;;;;;;5113878;28;20231;-56
2022/01/03 06:16:00;;;;;;;13.60;2.95;;;9.80;99.90;;;;;;5113458;28;20161;-54
2022/01/03 06:18:26;;;;;;;9.02;2.40;;;9.70;99.90;;;;;;5113682;28;20563;-50
2022/01/03 06:20:52;;;;;;;10.40;2.63;;;9.80;99.90;;;;;;5113348;28;20632;-57
2022/01/03 06:23:19;;;;;;;6.72;1.60;;;9.80;99.90;;;;;;5113329;28;20194;-56
2022/01/03 06:25:46;;;;;;;8.07;2.17;;;9.80;99.90;;;;;;5113141;28;20217;-52
2022/01/03 06:28:12;;;;;;;18.55;2.42;;;9.70;99.90;;;;;;5112990;28;20208;-56
2022/01/03 06:30:39;;;;;;;7.35;2.00;;;9.70;99.90;;;;;;5113052;28;20168;-62
2022/01/03 06:33:05;;;;;;;12.45;2.28;;;9.80;99.90;;;;;;5112929;28;20164;-53
2022/01/03 06:35:32;;;;;;;13.23;2.17;;;9.80;99.90;;;;;;5112892;28;20164;-54
2022/01/03 06:37:58;;;;;;;14.95;2.45;;;9.70;99.90;;;;;;5113420;28;20169;-56
2022/01/03 06:40:25;;;;;;;5.13;2.15;;;9.80;99.90;;;;;;5095079;28;20164;-60
2022/01/03 06:42:51;;;;;;;13.25;2.83;;;9.80;99.90;;;;;;5113011;28;20626;-53
2022/01/03 06:45:16;;;;;;;9.73;2.42;;;9.80;99.90;;;;;;5112947;28;20199;-57
2022/01/03 06:47:42;;;;;;;11.75;2.78;;;9.80;99.90;;;;;;5112870;28;20676;-56
2022/01/03 06:50:08;;;;;;;13.68;2.83;;;9.80;99.90;;;;;;5094699;28;20161;-58
2022/01/03 06:52:34;;;;;;;12.55;3.28;;;9.80;99.90;;;;;;5112314;28;20196;-56
2022/01/03 06:55:00;;;;;;;13.30;2.35;;;9.80;99.90;;;;;;5112784;28;20689;-58
2022/01/03 06:57:25;;;;;;;15.38;2.42;;;9.80;99.90;;;;;;5113176;28;20175;-56
2022/01/03 06:59:51;;;;;;;13.63;2.40;;;9.90;99.90;;;;;;5112777;28;20164;-58
2022/01/03 07:02:16;;;;;;;14.82;2.72;;;9.90;99.90;;;;;;5113167;28;20636;-59
2022/01/03 07:04:42;;;;;;;11.80;2.60;;;9.80;99.90;;;;;;5112674;28;20176;-57
2022/01/03 07:07:08;;;;;;;9.43;2.08;;;9.90;99.90;;;;;;5112543;28;20668;-61
2022/01/03 07:09:33;;;;;;;15.57;3.38;;;9.80;99.90;;;;;;5112601;28;20214;-59
2022/01/03 07:11:59;;;;;;;14.02;2.85;;;9.90;99.90;;;;;;5112486;28;20222;-61
2022/01/03 07:19:36;;;;;;;17.50;3.85;;;9.80;99.90;;;;;;5112849;28;20238;-58
2022/01/03 07:22:05;;;;;;;15.90;2.85;;;9.80;99.90;;;;;;5112493;28;20221;-59
2022/01/03 07:24:35;;;;;;;18.13;2.92;;;9.80;99.90;;;;;;5112306;28;20176;-59
2022/01/03 07:27:02;;;;;;;10.75;2.53;;;9.80;99.90;;;;;;5112342;28;20196;-58
2022/01/03 07:29:28;;;;;;;11.15;2.47;;;9.80;99.90;;;;;;5112828;28;20165;-58
2022/01/03 07:31:53;;;;;;;12.45;3.13;;;9.70;99.90;;;;;;5112902;28;20239;-59
2022/01/03 07:34:19;;;;;;;11.02;3.05;;;9.80;99.90;;;;;;5112325;28;20562;-58
2022/01/03 07:36:44;;;;;;;16.17;3.13;;;9.80;99.90;;;;;;5112165;28;20726;-59
2022/01/03 07:39:10;;;;;;;8.55;2.58;;;9.70;99.90;;;;;;5112473;28;20255;-59
2022/01/03 07:41:35;;;;;;;12.35;2.95;;;9.70;99.90;;;;;;5112274;28;20578;-58
2022/01/03 07:44:01;;;;;;;11.10;2.30;;;9.70;99.90;;;;;;5112237;28;20505;-59
2022/01/03 07:46:26;;;;;;;12.90;2.47;;;9.70;99.90;;;;;;5112574;28;20169;-59
2022/01/03 07:48:52;;;;;;;10.43;2.10;;;9.70;99.90;;;;;;5112671;28;20218;-58
2022/01/03 07:51:17;;;;;;;14.60;3.15;;;9.70;99.90;;;;;;5112216;28;20157;-54
2022/01/03 07:53:43;;;;;;;13.48;2.70;;;9.70;99.90;;;;;;5112134;28;20164;-51
2022/01/03 07:56:10;;;;;;;14.52;2.53;;;9.70;99.90;;;;;;5112129;28;20528;-51
2022/01/03 07:58:36;;;;;;;9.23;2.13;;;9.70;99.90;;;;;;5112358;28;20192;-53
2022/01/03 08:01:03;;;;;;;12.23;2.55;;;9.70;99.90;;;;;;5112100;28;20173;-53
2022/01/03 08:03:29;;;;;;;9.73;2.40;;;9.70;99.90;;;;;;5114060;28;20157;-49
2022/01/03 08:05:55;;;;;;;11.88;2.55;;;9.70;99.90;;;;;;5116718;28;20172;-54
2022/01/03 08:08:20;;;;;;;10.38;2.33;;;9.70;99.90;;;;;;5115899;28;20232;-49
2022/01/03 08:10:46;;;;;;;8.63;2.30;;;9.70;99.90;;;;;;5115835;28;20610;-48
2022/01/03 08:13:13;;;;;;;13.43;2.80;;;9.70;99.90;;;;;;5116188;28;20204;-51
2022/01/03 08:15:39;;;;;;;11.93;3.08;;;9.70;99.90;;;;;;5115874;28;20164;-49
2022/01/03 08:18:05;;;;;;;10.25;2.70;;;9.70;99.90;;;;;;5115679;28;20632;-53
2022/01/03 08:20:31;;;;;;;10.93;2.88;;;9.70;99.90;;;;;;5115727;28;20255;-51
2022/01/03 08:22:56;;;;;;;9.10;2.53;;;9.70;99.90;;;;;;5114804;28;20175;-57
2022/01/03 08:25:22;;;;;;;16.65;3.00;;;9.80;99.90;;;;;;5119010;27;20180;-50
2022/01/03 08:27:47;;;;;;;13.23;2.90;;;9.80;99.90;;;;;;5134648;27;20210;-49
2022/01/03 08:30:13;;;;;;;15.32;3.47;;;9.80;99.90;;;;;;5134372;27;20171;-54
2022/01/03 08:32:39;;;;;;;15.20;4.03;;;9.80;99.90;;;;;;5134611;27;20247;-56
2022/01/03 08:35:06;;;;;;;14.70;3.05;;;9.80;99.90;;;;;;5134604;27;20212;-53
2022/01/03 08:37:31;;;;;;;5.82;2.08;;;9.80;99.90;;;;;;5134644;27;20255;-52
2022/01/03 08:39:58;;;;;;;11.90;2.63;;;9.80;99.90;;;;;;5134584;27;20272;-50
2022/01/03 08:42:25;;;;;;;17.77;3.45;;;9.90;99.90;;;;;;5134797;27;20180;-52
2022/01/03 08:44:51;;;;;;;12.82;2.60;;;9.90;99.90;;;;;;5134268;27;20558;-57
2022/01/03 08:47:16;;;;;;;12.75;3.25;;;9.90;99.90;;;;;;5134168;27;20321;-57
2022/01/03 08:49:42;;;;;;;13.25;2.92;;;9.90;99.90;;;;;;5134038;27;20179;-57
2022/01/03 08:52:07;;;;;;;15.60;3.25;;;9.90;99.90;;;;;;5134073;27;20164;-53
2022/01/03 08:54:33;;;;;;;8.15;2.40;;;9.90;99.90;;;;;;5133949;27;20164;-57
2022/01/03 08:56:59;;;;;;;15.60;3.35;;;10.00;99.90;;;;;;5134551;27;20695;-55
2022/01/03 08:59:25;;;;;;;13.65;2.72;;;10.00;99.90;;;;;;5115778;27;20168;-57
2022/01/03 09:01:51;;;;;;;11.98;3.03;;;10.00;99.90;;;;;;5134388;27;20176;-57
2022/01/03 09:04:17;;;;;;;13.20;2.42;;;10.00;99.90;;;;;;5133757;27;20164;-57
2022/01/03 09:06:42;;;;;;;11.73;2.55;;;10.10;99.90;;;;;;5133829;27;20290;-57
2022/01/03 09:09:08;;;;;;;18.70;2.75;;;10.10;99.90;;;;;;5133884;27;20168;-57
2022/01/03 09:11:33;;;;;;;10.40;2.40;;;10.10;99.90;;;;;;5133669;27;20675;-56
2022/01/03 09:13:59;;;;;;;10.07;2.88;;;10.20;99.90;;;;;;5134339;27;20175;-57
2022/01/03 09:16:25;;;;;;;15.63;2.75;;;10.20;99.90;;;;;;5133281;27;20160;-56
2022/01/03 09:18:50;;;;;;;7.65;2.80;;;10.20;99.90;;;;;;5132540;27;20164;-57
2022/01/03 09:21:16;;;;;;;11.20;2.42;;;10.30;99.90;;;;;;5133057;27;20642;-57
2022/01/03 09:23:49;;;;;;;13.40;2.88;;;10.30;99.90;;;;;;5111154;27;20207;-54
2022/01/03 09:28:59;;;;;;;12.60;3.47;;;10.30;99.90;;;;;;5092612;28;20697;-51
2022/01/03 09:31:32;;;;;;;12.05;3.17;;;10.30;99.90;;;;;;5093263;28;20173;-56
2022/01/03 09:34:00;;;;;;;10.35;2.40;;;10.40;99.90;;;;;;5093016;28;20173;-57
2022/01/03 09:36:27;;;;;;;7.90;1.98;;;10.40;99.90;;;;;;5092908;28;20181;-57
2022/01/03 09:38:54;;;;;;;11.50;2.05;;;10.40;99.90;;;;;;5092743;28;20181;-57
2022/01/03 09:41:24;;;;;;;14.40;3.20;;;10.40;99.90;;;;;;5092421;28;20162;-57
2022/01/03 09:43:56;;;;;;;8.90;2.47;;;10.40;99.90;;;;;;5092557;28;20169;-57
2022/01/03 09:46:31;;;;;;;10.35;2.72;;;10.50;99.90;;;;;;5092271;28;20195;-57
2022/01/03 09:48:56;;;;;;;12.20;3.05;;;10.60;99.90;;;;;;5092661;28;20173;-57
2022/01/03 09:51:28;;;;;;;14.20;2.78;;;10.60;99.90;;;;;;5092592;28;20559;-56
2022/01/03 09:53:57;;;;;;;14.60;2.55;;;10.70;99.90;;;;;;5092333;28;20165;-57
2022/01/03 09:56:23;;;;;;;10.20;3.45;;;10.70;99.90;;;;;;5092166;28;20162;-56
2022/01/03 09:58:49;;;;;;;9.45;3.03;;;10.60;99.90;;;;;;5092078;28;20177;-56
2022/01/03 10:01:15;;;;;;;11.95;3.47;;;10.60;99.90;;;;;;5092418;28;20273;-57
2022/01/03 10:03:47;;;;;;;13.70;3.30;;;10.60;99.90;;;;;;5091925;28;20170;-56
2022/01/03 10:06:23;;;;;;;16.98;3.20;;;10.70;99.90;;;;;;5092057;28;20257;-56
2022/01/03 10:08:49;;;;;;;10.63;2.92;;;10.70;99.90;;;;;;5091812;28;20266;-54
2022/01/03 10:11:15;;;;;;;9.13;2.83;;;10.80;99.90;;;;;;5091912;28;20255;-55
2022/01/03 10:13:40;;;;;;;11.13;2.55;;;10.80;99.90;;;;;;5092247;28;20213;-55
2022/01/03 10:16:07;;;;;;;11.02;2.85;;;10.80;99.90;;;;;;5091636;28;20169;-54
2022/01/03 10:18:33;;;;;;;11.63;2.70;;;10.90;99.90;;;;;;5091885;28;20187;-52
2022/01/03 10:21:00;;;;;;;16.23;3.63;;;10.80;99.90;;;;;;5092440;28;20218;-52
2022/01/03 10:23:26;;;;;;;13.38;2.63;;;10.90;99.90;;;;;;5092263;28;20169;-54
2022/01/03 10:25:52;;;;;;;10.52;2.70;;;10.90;99.90;;;;;;5091260;28;20165;-54
2022/01/03 10:28:26;;;;;;;10.20;3.03;;;10.90;99.90;;;;;;5090061;28;20204;-54
2022/01/03 10:30:52;;;;;;;12.63;2.78;;;11.00;99.90;;;;;;5091635;28;20161;-54
2022/01/03 10:33:21;;;;;;;17.33;3.10;;;11.10;99.90;;;;;;5091475;28;20177;-55
2022/01/03 10:35:58;;;;;;;12.90;3.08;;;11.10;99.90;;;;;;5091186;28;20260;-51
2022/01/03 10:38:37;;;;;;;13.48;2.90;;;11.10;99.90;;;;;;5091728;28;20173;-55
2022/01/03 10:41:14;;;;;;;17.60;3.40;;;11.90;99.90;;;;;;5091349;28;20176;-54
2022/01/03 10:43:41;;;;;;;13.10;2.80;;;11.10;99.90;;;;;;5091456;28;20644;-55
2022/01/03 10:46:18;;;;;;;10.45;3.17;;;11.10;99.90;;;;;;5091358;28;20170;-52
2022/01/03 10:48:45;;;;;;;11.05;2.63;;;11.10;99.90;;;;;;5091505;28;20240;-52
2022/01/03 10:51:10;;;;;;;11.45;2.55;;;11.00;99.90;;;;;;5091247;28;20173;-54
2022/01/03 10:53:41;;;;;;;10.15;2.55;;;11.00;99.90;;;;;;5091305;28;20254;-52
2022/01/03 10:56:24;;;;;;;10.27;3.10;;;11.00;99.90;;;;;;5091399;28;20204;-52
2022/01/03 10:58:53;;;;;;;14.25;3.13;;;11.00;99.90;;;;;;5091115;28;20173;-52
2022/01/03 11:01:21;;;;;;;21.05;3.60;;;11.10;99.90;;;;;;5091192;28;20166;-55
2022/01/03 11:03:47;;;;;;;14.10;3.28;;;11.20;99.90;;;;;;5091089;28;20172;-54
2022/01/03 11:06:36;;;;;;;15.75;2.97;;;11.20;99.90;;;;;;5089655;28;20698;-54
2022/01/03 11:12:01;;;;;;;8.32;2.38;;;11.10;99.90;;;;;;5048479;28;20312;-52
2022/01/03 11:14:30;;;;;;;10.68;2.90;;;11.10;99.90;;;;;;5082465;28;20590;-55
2022/01/03 11:16:55;;;;;;;13.32;2.67;;;11.10;99.90;;;;;;5091479;28;20208;-52
2022/01/03 11:19:40;;;;;;;9.02;1.95;;;11.10;99.90;;;;;;5090841;28;20189;-53
2022/01/03 11:22:05;;;;;;;9.02;2.70;;;11.10;99.90;;;;;;5090964;28;20345;-54
2022/01/03 11:24:32;;;;;;;9.18;2.25;;;11.20;99.90;;;;;;5090745;28;20162;-53
2022/01/03 11:26:59;;;;;;;6.72;2.40;;;11.20;99.90;;;;;;5091013;28;20296;-53
2022/01/03 11:29:28;;;;;;;14.02;3.10;;;11.20;99.90;;;;;;5091375;28;20618;-52
2022/01/03 11:31:54;;;;;;;9.95;3.05;;;11.10;99.90;;;;;;5091107;28;20700;-54
2022/01/03 11:34:25;;;;;;;5.93;2.42;;;11.10;99.90;;;;;;5090942;28;20204;-54
2022/01/03 11:36:51;;;;;;;12.63;3.33;;;11.10;99.90;;;;;;5090229;28;20633;-55
2022/01/03 11:39:20;;;;;;;8.25;2.65;;;11.00;99.90;;;;;;5094302;28;20184;-55
2022/01/03 11:41:46;;;;;;;8.82;2.25;;;11.00;99.90;;;;;;5094850;28;20169;-53
2022/01/03 11:44:15;;;;;;;8.40;2.20;;;11.00;99.90;;;;;;5095121;28;20248;-52
2022/01/03 11:46:43;;;;;;;9.57;2.30;;;11.00;99.90;;;;;;5094730;28;20181;-52
2022/01/03 11:49:10;;;;;;;12.23;2.50;;;10.90;99.90;;;;;;5094746;28;20498;-54
2022/01/03 11:51:36;;;;;;;9.80;2.65;;;10.90;99.90;;;;;;5094786;28;20192;-54
2022/01/03 11:54:03;;;;;;;13.13;3.28;;;10.80;99.90;;;;;;5094569;28;20255;-54
2022/01/03 11:56:30;;;;;;;11.93;2.25;;;10.80;99.90;;;;;;5094902;28;20176;-55
2022/01/03 12:04:39;;;;;;;13.20;3.03;;;10.80;99.90;;;;;;5094769;28;20196;-55
2022/01/03 12:07:16;;;;;;;10.23;2.92;;;10.80;99.90;;;;;;5094617;28;20197;-55
2022/01/03 12:09:50;;;;;;;11.65;2.70;;;10.90;99.90;;;;;;5094484;28;20201;-55
2022/01/03 12:12:37;;;;;;;12.98;2.83;;;10.90;99.90;;;;;;5094245;28;20285;-54
2022/01/03 12:15:04;;;;;;;10.05;2.67;;;10.90;99.90;;;;;;5094610;28;20196;-56
2022/01/03 12:17:45;;;;;;;12.07;2.60;;;11.00;99.90;;;;;;5094635;28;20161;-55
2022/01/03 12:20:11;;;;;;;12.07;2.70;;;11.00;99.90;;;;;;5094284;28;20161;-59
2022/01/03 12:22:51;;;;;;;12.02;2.88;;;11.00;99.90;;;;;;5094154;28;20227;-55
2022/01/03 12:25:29;;;;;;;9.98;3.00;;;11.00;99.90;;;;;;5094019;28;20165;-46
2022/01/03 12:28:00;;;;;;;7.85;2.65;;;11.00;99.90;;;;;;5093930;28;20202;-53
2022/01/03 12:30:31;;;;;;;9.90;2.33;;;11.00;99.90;;;;;;5094205;28;20173;-52
2022/01/03 12:33:08;;;;;;;13.45;3.65;;;10.90;99.90;;;;;;5094290;28;20240;-53
2022/01/03 12:35:40;;;;;;;7.55;2.53;;;10.90;99.90;;;;;;5093794;28;20266;-52
2022/01/03 12:38:06;;;;;;;12.88;2.50;;;10.80;99.90;;;;;;5075619;28;20268;-51
2022/01/03 12:40:34;;;;;;;11.40;3.28;;;10.80;99.90;;;;;;5093630;28;20264;-53
2022/01/03 12:43:10;;;;;;;12.10;3.00;;;10.80;99.90;;;;;;5093904;28;20172;-53
2022/01/03 12:45:44;;;;;;;19.85;3.92;;;10.80;99.90;;;;;;5093684;28;20165;-52
2022/01/03 12:48:10;;;;;;;17.15;3.30;;;10.70;99.90;;;;;;5093391;28;20295;-53
2022/01/03 12:50:50;;;;;;;16.25;4.97;;;10.70;99.90;;;;;;5092614;28;20252;-51
2022/01/03 12:53:39;;;;;;;12.07;2.63;;;10.70;99.90;;;;;;5092458;28;20176;-52
2022/01/03 12:56:09;;;;;;;15.05;3.10;;;10.60;99.90;;;;;;5093268;28;20241;-48
2022/01/03 12:58:40;;;;;;;12.50;3.55;;;10.60;99.90;;;;;;5093238;28;20161;-51
2022/01/03 13:01:19;;;;;;;18.35;3.35;;;10.60;99.90;;;;;;5093082;28;20181;-49
2022/01/03 13:03:50;;;;;;;16.83;3.58;;;10.60;99.90;;;;;;5092774;28;20214;-48
2022/01/03 13:06:24;;;;;;;6.97;3.00;;;10.60;99.90;;;;;;5091855;28;20196;-49